sensor_id;sensor_type;location;lat;lon;timestamp;P1;durP1;ratioP1;P2;durP2;ratioP2
8458;SDS011;4266;48.816;9.154;2023-08-12T00:02:25;7.45;;;6.78;;
8458;SDS011;4266;48.816;9.154;2023-08-12T00:04:51;6.97;;;6.47;;
8458;SDS011;4266;48.816;9.154;2023-08-12T00:07:17;7.30;;;6.70;;
8458;SDS011;4266;48.816;9.154;2023-08-12T00:09:42;8.07;;;7.28;;
8458;SDS011;4266;48.816;9.154;2023-08-12T00:12:08;7.50;;;6.60;;
8458;SDS011;4266;48.816;9.154;2023-08-12T00:14:34;8.40;;;6.43;;
8458;SDS011;4266;48.816;9.154;2023-08-12T00:17:00;7.70;;;6.75;;
8458;SDS011;4266;48.816;9.154;2023-08-12T00:19:26;7.78;;;7.07;;
8458;SDS011;4266;48.816;9.154;2023-08-12T00:21:51;7.50;;;6.80;;
8458;SDS011;4266;48.816;9.154;2023-08-12T00:24:18;9.25;;;6.50;;
8458;SDS011;4266;48.816;9.154;2023-08-12T00:26:44;7.12;;;6.40;;
8458;SDS011;4266;48.816;9.154;2023-08-12T00:29:10;6.80;;;6.28;;
8458;SDS011;4266;48.816;9.154;2023-08-12T00:31:35;7.78;;;6.20;;
8458;SDS011;4266;48.816;9.154;2023-08-12T00:34:01;7.50;;;6.85;;
8458;SDS011;4266;48.816;9.154;2023-08-12T00:36:28;9.77;;;6.68;;
8458;SDS011;4266;48.816;9.154;2023-08-12T00:38:54;7.07;;;6.37;;
8458;SDS011;4266;48.816;9.154;2023-08-12T00:41:20;7.10;;;6.45;;
8458;SDS011;4266;48.816;9.154;2023-08-12T00:43:46;13.48;;;6.47;;
8458;SDS011;4266;48.816;9.154;2023-08-12T00:46:13;7.57;;;6.53;;
8458;SDS011;4266;48.816;9.154;2023-08-12T00:48:40;7.45;;;6.57;;
8458;SDS011;4266;48.816;9.154;2023-08-12T00:51:06;8.07;;;7.28;;
8458;SDS011;4266;48.816;9.154;2023-08-12T00:53:32;8.57;;;6.32;;
8458;SDS011;4266;48.816;9.154;2023-08-12T00:55:57;8.00;;;6.60;;
8458;SDS011;4266;48.816;9.154;2023-08-12T00:58:23;7.07;;;6.47;;
8458;SDS011;4266;48.816;9.154;2023-08-12T01:00:49;7.93;;;7.28;;
8458;SDS011;4266;48.816;9.154;2023-08-12T01:03:15;7.07;;;6.43;;
8458;SDS011;4266;48.816;9.154;2023-08-12T01:05:41;7.90;;;6.82;;
8458;SDS011;4266;48.816;9.154;2023-08-12T01:08:07;7.85;;;7.12;;
8458;SDS011;4266;48.816;9.154;2023-08-12T01:10:35;8.73;;;7.80;;
8458;SDS011;4266;48.816;9.154;2023-08-12T01:13:02;7.62;;;7.03;;
8458;SDS011;4266;48.816;9.154;2023-08-12T01:15:25;7.55;;;6.80;;
8458;SDS011;4266;48.816;9.154;2023-08-12T01:17:50;7.90;;;7.18;;
8458;SDS011;4266;48.816;9.154;2023-08-12T01:20:17;7.43;;;6.50;;
8458;SDS011;4266;48.816;9.154;2023-08-12T01:22:44;7.53;;;6.32;;
8458;SDS011;4266;48.816;9.154;2023-08-12T01:25:10;7.30;;;6.70;;
8458;SDS011;4266;48.816;9.154;2023-08-12T01:27:35;8.40;;;6.75;;
8458;SDS011;4266;48.816;9.154;2023-08-12T01:30:01;7.50;;;6.80;;
8458;SDS011;4266;48.816;9.154;2023-08-12T01:32:34;6.80;;;6.03;;
8458;SDS011;4266;48.816;9.154;2023-08-12T01:35:09;6.90;;;6.32;;
8458;SDS011;4266;48.816;9.154;2023-08-12T01:37:35;7.32;;;6.68;;
8458;SDS011;4266;48.816;9.154;2023-08-12T01:40:02;7.37;;;6.70;;
8458;SDS011;4266;48.816;9.154;2023-08-12T01:42:27;6.72;;;6.12;;
8458;SDS011;4266;48.816;9.154;2023-08-12T01:44:54;9.85;;;6.43;;
8458;SDS011;4266;48.816;9.154;2023-08-12T01:47:19;7.50;;;6.80;;
8458;SDS011;4266;48.816;9.154;2023-08-12T01:49:45;6.53;;;6.03;;
8458;SDS011;4266;48.816;9.154;2023-08-12T01:52:12;10.23;;;6.65;;
8458;SDS011;4266;48.816;9.154;2023-08-12T01:54:38;7.80;;;7.20;;
8458;SDS011;4266;48.816;9.154;2023-08-12T01:57:04;6.80;;;6.20;;
8458;SDS011;4266;48.816;9.154;2023-08-12T01:59:31;8.25;;;5.93;;
8458;SDS011;4266;48.816;9.154;2023-08-12T02:01:57;9.43;;;7.25;;
8458;SDS011;4266;48.816;9.154;2023-08-12T02:04:23;7.45;;;6.85;;
8458;SDS011;4266;48.816;9.154;2023-08-12T02:06:49;8.15;;;7.45;;
8458;SDS011;4266;48.816;9.154;2023-08-12T02:09:15;8.93;;;6.68;;
8458;SDS011;4266;48.816;9.154;2023-08-12T02:11:40;9.32;;;6.80;;
8458;SDS011;4266;48.816;9.154;2023-08-12T02:14:06;7.53;;;6.82;;
8458;SDS011;4266;48.816;9.154;2023-08-12T02:16:32;8.88;;;6.93;;
8458;SDS011;4266;48.816;9.154;2023-08-12T02:18:58;7.93;;;6.62;;
8458;SDS011;4266;48.816;9.154;2023-08-12T02:21:24;7.72;;;6.80;;
8458;SDS011;4266;48.816;9.154;2023-08-12T02:23:50;9.70;;;6.55;;
8458;SDS011;4266;48.816;9.154;2023-08-12T02:26:17;6.47;;;5.85;;
8458;SDS011;4266;48.816;9.154;2023-08-12T02:28:42;6.47;;;5.97;;
8458;SDS011;4266;48.816;9.154;2023-08-12T02:31:09;7.25;;;6.65;;
8458;SDS011;4266;48.816;9.154;2023-08-12T02:33:35;7.57;;;6.75;;
8458;SDS011;4266;48.816;9.154;2023-08-12T02:36:01;7.10;;;6.50;;
8458;SDS011;4266;48.816;9.154;2023-08-12T02:38:28;6.68;;;6.07;;
8458;SDS011;4266;48.816;9.154;2023-08-12T02:40:53;7.93;;;7.12;;
8458;SDS011;4266;48.816;9.154;2023-08-12T02:43:19;7.12;;;6.60;;
8458;SDS011;4266;48.816;9.154;2023-08-12T02:45:45;9.63;;;6.70;;
8458;SDS011;4266;48.816;9.154;2023-08-12T02:48:11;7.78;;;7.00;;
8458;SDS011;4266;48.816;9.154;2023-08-12T02:50:37;10.15;;;6.62;;
8458;SDS011;4266;48.816;9.154;2023-08-12T02:53:02;8.50;;;6.85;;
8458;SDS011;4266;48.816;9.154;2023-08-12T02:55:29;9.27;;;7.25;;
8458;SDS011;4266;48.816;9.154;2023-08-12T02:57:54;9.50;;;7.70;;
8458;SDS011;4266;48.816;9.154;2023-08-12T03:00:20;8.25;;;7.35;;
8458;SDS011;4266;48.816;9.154;2023-08-12T03:02:46;8.43;;;7.57;;
8458;SDS011;4266;48.816;9.154;2023-08-12T03:05:12;8.75;;;6.78;;
8458;SDS011;4266;48.816;9.154;2023-08-12T03:07:39;8.18;;;6.90;;
8458;SDS011;4266;48.816;9.154;2023-08-12T03:10:05;6.87;;;6.22;;
8458;SDS011;4266;48.816;9.154;2023-08-12T03:12:32;6.82;;;6.22;;
8458;SDS011;4266;48.816;9.154;2023-08-12T03:14:58;7.80;;;7.00;;
8458;SDS011;4266;48.816;9.154;2023-08-12T03:17:23;8.82;;;6.93;;
8458;SDS011;4266;48.816;9.154;2023-08-12T03:19:50;7.90;;;7.15;;
8458;SDS011;4266;48.816;9.154;2023-08-12T03:22:15;8.77;;;6.65;;
8458;SDS011;4266;48.816;9.154;2023-08-12T03:24:41;9.65;;;6.80;;
8458;SDS011;4266;48.816;9.154;2023-08-12T03:27:07;7.20;;;6.60;;
8458;SDS011;4266;48.816;9.154;2023-08-12T03:29:32;7.30;;;6.70;;
8458;SDS011;4266;48.816;9.154;2023-08-12T03:31:58;7.70;;;6.90;;
8458;SDS011;4266;48.816;9.154;2023-08-12T03:34:24;7.10;;;6.50;;
8458;SDS011;4266;48.816;9.154;2023-08-12T03:36:50;7.18;;;6.47;;
8458;SDS011;4266;48.816;9.154;2023-08-12T03:39:16;7.25;;;6.62;;
8458;SDS011;4266;48.816;9.154;2023-08-12T03:41:42;7.57;;;6.72;;
8458;SDS011;4266;48.816;9.154;2023-08-12T03:44:07;8.45;;;6.90;;
8458;SDS011;4266;48.816;9.154;2023-08-12T03:46:33;8.13;;;7.12;;
8458;SDS011;4266;48.816;9.154;2023-08-12T03:48:59;11.00;;;7.50;;
8458;SDS011;4266;48.816;9.154;2023-08-12T03:51:24;7.80;;;6.90;;
8458;SDS011;4266;48.816;9.154;2023-08-12T03:53:50;8.90;;;6.95;;
8458;SDS011;4266;48.816;9.154;2023-08-12T03:56:16;8.70;;;6.40;;
8458;SDS011;4266;48.816;9.154;2023-08-12T03:58:42;7.45;;;6.72;;
8458;SDS011;4266;48.816;9.154;2023-08-12T04:01:07;7.20;;;6.50;;
8458;SDS011;4266;48.816;9.154;2023-08-12T04:03:34;7.78;;;7.00;;
8458;SDS011;4266;48.816;9.154;2023-08-12T04:05:59;8.38;;;7.53;;
8458;SDS011;4266;48.816;9.154;2023-08-12T04:08:25;7.72;;;7.12;;
8458;SDS011;4266;48.816;9.154;2023-08-12T04:10:51;8.73;;;7.93;;
8458;SDS011;4266;48.816;9.154;2023-08-12T04:13:16;7.87;;;7.28;;
8458;SDS011;4266;48.816;9.154;2023-08-12T04:15:42;8.48;;;6.85;;
8458;SDS011;4266;48.816;9.154;2023-08-12T04:18:08;7.35;;;6.78;;
8458;SDS011;4266;48.816;9.154;2023-08-12T04:20:34;7.85;;;7.12;;
8458;SDS011;4266;48.816;9.154;2023-08-12T04:22:59;8.60;;;7.05;;
8458;SDS011;4266;48.816;9.154;2023-08-12T04:25:25;9.00;;;6.50;;
8458;SDS011;4266;48.816;9.154;2023-08-12T04:27:50;7.70;;;6.93;;
8458;SDS011;4266;48.816;9.154;2023-08-12T04:30:17;8.00;;;6.97;;
8458;SDS011;4266;48.816;9.154;2023-08-12T04:32:43;9.40;;;7.10;;
8458;SDS011;4266;48.816;9.154;2023-08-12T04:35:09;7.80;;;7.20;;
8458;SDS011;4266;48.816;9.154;2023-08-12T04:37:35;7.60;;;6.82;;
8458;SDS011;4266;48.816;9.154;2023-08-12T04:40:01;7.80;;;7.20;;
8458;SDS011;4266;48.816;9.154;2023-08-12T04:42:26;7.87;;;7.20;;
8458;SDS011;4266;48.816;9.154;2023-08-12T04:44:53;8.75;;;7.30;;
8458;SDS011;4266;48.816;9.154;2023-08-12T04:47:19;7.85;;;6.90;;
8458;SDS011;4266;48.816;9.154;2023-08-12T04:49:44;7.68;;;6.97;;
8458;SDS011;4266;48.816;9.154;2023-08-12T04:52:10;7.53;;;6.87;;
8458;SDS011;4266;48.816;9.154;2023-08-12T04:54:37;7.47;;;6.78;;
8458;SDS011;4266;48.816;9.154;2023-08-12T04:57:02;8.60;;;7.00;;
8458;SDS011;4266;48.816;9.154;2023-08-12T04:59:28;8.20;;;7.32;;
8458;SDS011;4266;48.816;9.154;2023-08-12T05:01:54;7.60;;;7.00;;
8458;SDS011;4266;48.816;9.154;2023-08-12T05:04:20;7.70;;;7.10;;
8458;SDS011;4266;48.816;9.154;2023-08-12T05:06:46;9.90;;;7.37;;
8458;SDS011;4266;48.816;9.154;2023-08-12T05:09:12;8.85;;;6.90;;
8458;SDS011;4266;48.816;9.154;2023-08-12T05:11:37;7.85;;;7.15;;
8458;SDS011;4266;48.816;9.154;2023-08-12T05:14:03;8.30;;;7.18;;
8458;SDS011;4266;48.816;9.154;2023-08-12T05:16:29;9.30;;;7.05;;
8458;SDS011;4266;48.816;9.154;2023-08-12T05:18:54;7.70;;;6.85;;
8458;SDS011;4266;48.816;9.154;2023-08-12T05:21:21;8.52;;;7.35;;
8458;SDS011;4266;48.816;9.154;2023-08-12T05:23:47;12.80;;;7.07;;
8458;SDS011;4266;48.816;9.154;2023-08-12T05:26:13;8.48;;;7.05;;
8458;SDS011;4266;48.816;9.154;2023-08-12T05:28:39;7.62;;;6.87;;
8458;SDS011;4266;48.816;9.154;2023-08-12T05:31:04;8.60;;;7.47;;
8458;SDS011;4266;48.816;9.154;2023-08-12T05:33:30;7.75;;;6.90;;
8458;SDS011;4266;48.816;9.154;2023-08-12T05:35:56;11.30;;;7.28;;
8458;SDS011;4266;48.816;9.154;2023-08-12T05:38:21;9.80;;;7.25;;
8458;SDS011;4266;48.816;9.154;2023-08-12T05:40:47;8.25;;;7.25;;
8458;SDS011;4266;48.816;9.154;2023-08-12T05:43:13;10.80;;;7.32;;
8458;SDS011;4266;48.816;9.154;2023-08-12T05:45:38;7.70;;;7.00;;
8458;SDS011;4266;48.816;9.154;2023-08-12T05:48:04;12.13;;;7.20;;
8458;SDS011;4266;48.816;9.154;2023-08-12T05:50:30;7.50;;;6.78;;
8458;SDS011;4266;48.816;9.154;2023-08-12T05:52:56;8.20;;;7.40;;
8458;SDS011;4266;48.816;9.154;2023-08-12T05:55:22;7.93;;;7.15;;
8458;SDS011;4266;48.816;9.154;2023-08-12T05:57:47;7.53;;;6.82;;
8458;SDS011;4266;48.816;9.154;2023-08-12T06:00:13;7.80;;;7.20;;
8458;SDS011;4266;48.816;9.154;2023-08-12T06:02:39;7.87;;;7.20;;
8458;SDS011;4266;48.816;9.154;2023-08-12T06:05:05;7.75;;;7.05;;
8458;SDS011;4266;48.816;9.154;2023-08-12T06:07:31;8.48;;;7.53;;
8458;SDS011;4266;48.816;9.154;2023-08-12T06:09:57;8.43;;;7.37;;
8458;SDS011;4266;48.816;9.154;2023-08-12T06:12:23;8.45;;;7.62;;
8458;SDS011;4266;48.816;9.154;2023-08-12T06:14:49;8.85;;;7.00;;
8458;SDS011;4266;48.816;9.154;2023-08-12T06:17:14;7.70;;;7.00;;
8458;SDS011;4266;48.816;9.154;2023-08-12T06:19:40;10.40;;;8.00;;
8458;SDS011;4266;48.816;9.154;2023-08-12T06:22:06;8.02;;;7.18;;
8458;SDS011;4266;48.816;9.154;2023-08-12T06:24:32;7.62;;;6.90;;
8458;SDS011;4266;48.816;9.154;2023-08-12T06:26:58;10.55;;;7.28;;
8458;SDS011;4266;48.816;9.154;2023-08-12T06:29:24;8.20;;;7.30;;
8458;SDS011;4266;48.816;9.154;2023-08-12T06:31:49;9.00;;;7.15;;
8458;SDS011;4266;48.816;9.154;2023-08-12T06:34:15;7.60;;;6.82;;
8458;SDS011;4266;48.816;9.154;2023-08-12T06:36:41;7.93;;;6.90;;
8458;SDS011;4266;48.816;9.154;2023-08-12T06:39:07;9.65;;;6.50;;
8458;SDS011;4266;48.816;9.154;2023-08-12T06:41:33;6.97;;;6.47;;
8458;SDS011;4266;48.816;9.154;2023-08-12T06:43:58;7.28;;;6.65;;
8458;SDS011;4266;48.816;9.154;2023-08-12T06:46:25;7.05;;;6.03;;
8458;SDS011;4266;48.816;9.154;2023-08-12T06:48:50;9.45;;;6.65;;
8458;SDS011;4266;48.816;9.154;2023-08-12T06:51:17;8.18;;;6.50;;
8458;SDS011;4266;48.816;9.154;2023-08-12T06:53:42;7.35;;;6.50;;
8458;SDS011;4266;48.816;9.154;2023-08-12T06:56:09;6.25;;;5.65;;
8458;SDS011;4266;48.816;9.154;2023-08-12T06:58:35;13.57;;;6.60;;
8458;SDS011;4266;48.816;9.154;2023-08-12T07:01:01;9.95;;;6.80;;
8458;SDS011;4266;48.816;9.154;2023-08-12T07:03:27;6.75;;;6.25;;
8458;SDS011;4266;48.816;9.154;2023-08-12T07:05:53;6.50;;;5.90;;
8458;SDS011;4266;48.816;9.154;2023-08-12T07:08:18;9.98;;;6.30;;
8458;SDS011;4266;48.816;9.154;2023-08-12T07:10:44;7.30;;;6.57;;
8458;SDS011;4266;48.816;9.154;2023-08-12T07:13:10;6.97;;;6.35;;
8458;SDS011;4266;48.816;9.154;2023-08-12T07:15:36;6.30;;;5.80;;
8458;SDS011;4266;48.816;9.154;2023-08-12T07:18:02;5.97;;;5.37;;
8458;SDS011;4266;48.816;9.154;2023-08-12T07:20:28;6.20;;;5.60;;
8458;SDS011;4266;48.816;9.154;2023-08-12T07:22:54;8.43;;;5.68;;
8458;SDS011;4266;48.816;9.154;2023-08-12T07:25:20;6.47;;;5.87;;
8458;SDS011;4266;48.816;9.154;2023-08-12T07:27:45;5.68;;;5.20;;
8458;SDS011;4266;48.816;9.154;2023-08-12T07:30:11;7.53;;;5.57;;
8458;SDS011;4266;48.816;9.154;2023-08-12T07:32:38;8.20;;;5.40;;
8458;SDS011;4266;48.816;9.154;2023-08-12T07:35:04;6.18;;;5.68;;
8458;SDS011;4266;48.816;9.154;2023-08-12T07:37:31;6.25;;;5.65;;
8458;SDS011;4266;48.816;9.154;2023-08-12T07:39:56;6.20;;;5.32;;
8458;SDS011;4266;48.816;9.154;2023-08-12T07:42:22;7.00;;;6.28;;
8458;SDS011;4266;48.816;9.154;2023-08-12T07:44:48;7.18;;;5.68;;
8458;SDS011;4266;48.816;9.154;2023-08-12T07:47:14;5.72;;;5.22;;
8458;SDS011;4266;48.816;9.154;2023-08-12T07:49:40;6.45;;;5.25;;
8458;SDS011;4266;48.816;9.154;2023-08-12T07:52:05;5.90;;;5.35;;
8458;SDS011;4266;48.816;9.154;2023-08-12T07:54:31;5.80;;;5.30;;
8458;SDS011;4266;48.816;9.154;2023-08-12T07:56:57;7.97;;;5.45;;
8458;SDS011;4266;48.816;9.154;2023-08-12T07:59:23;5.85;;;5.35;;
8458;SDS011;4266;48.816;9.154;2023-08-12T08:01:49;5.22;;;4.85;;
8458;SDS011;4266;48.816;9.154;2023-08-12T08:04:14;7.57;;;5.55;;
8458;SDS011;4266;48.816;9.154;2023-08-12T08:06:40;6.28;;;5.65;;
8458;SDS011;4266;48.816;9.154;2023-08-12T08:09:06;9.23;;;6.18;;
8458;SDS011;4266;48.816;9.154;2023-08-12T08:11:31;5.70;;;5.20;;
8458;SDS011;4266;48.816;9.154;2023-08-12T08:13:57;6.03;;;5.47;;
8458;SDS011;4266;48.816;9.154;2023-08-12T08:16:23;6.65;;;6.05;;
8458;SDS011;4266;48.816;9.154;2023-08-12T08:18:48;6.12;;;5.53;;
8458;SDS011;4266;48.816;9.154;2023-08-12T08:21:14;9.40;;;5.43;;
8458;SDS011;4266;48.816;9.154;2023-08-12T08:23:41;7.47;;;5.30;;
8458;SDS011;4266;48.816;9.154;2023-08-12T08:26:06;5.93;;;5.43;;
8458;SDS011;4266;48.816;9.154;2023-08-12T08:28:32;7.25;;;5.15;;
8458;SDS011;4266;48.816;9.154;2023-08-12T08:30:58;6.20;;;5.60;;
8458;SDS011;4266;48.816;9.154;2023-08-12T08:33:24;5.15;;;4.75;;
8458;SDS011;4266;48.816;9.154;2023-08-12T08:35:49;5.20;;;4.80;;
8458;SDS011;4266;48.816;9.154;2023-08-12T08:38:15;5.93;;;4.85;;
8458;SDS011;4266;48.816;9.154;2023-08-12T08:40:40;5.75;;;4.95;;
8458;SDS011;4266;48.816;9.154;2023-08-12T08:43:07;8.50;;;5.20;;
8458;SDS011;4266;48.816;9.154;2023-08-12T08:45:32;9.52;;;5.05;;
8458;SDS011;4266;48.816;9.154;2023-08-12T08:47:59;6.03;;;5.30;;
8458;SDS011;4266;48.816;9.154;2023-08-12T08:50:24;5.20;;;4.57;;
8458;SDS011;4266;48.816;9.154;2023-08-12T08:52:50;8.40;;;5.68;;
8458;SDS011;4266;48.816;9.154;2023-08-12T08:55:16;5.37;;;4.87;;
8458;SDS011;4266;48.816;9.154;2023-08-12T08:57:42;8.77;;;4.95;;
8458;SDS011;4266;48.816;9.154;2023-08-12T09:00:07;5.72;;;5.25;;
8458;SDS011;4266;48.816;9.154;2023-08-12T09:02:34;5.47;;;5.07;;
8458;SDS011;4266;48.816;9.154;2023-08-12T09:05:00;5.53;;;5.07;;
8458;SDS011;4266;48.816;9.154;2023-08-12T09:07:25;5.62;;;5.12;;
8458;SDS011;4266;48.816;9.154;2023-08-12T09:09:52;6.15;;;5.10;;
8458;SDS011;4266;48.816;9.154;2023-08-12T09:12:17;5.65;;;5.15;;
8458;SDS011;4266;48.816;9.154;2023-08-12T09:14:43;8.48;;;5.12;;
8458;SDS011;4266;48.816;9.154;2023-08-12T09:17:09;6.00;;;5.25;;
8458;SDS011;4266;48.816;9.154;2023-08-12T09:19:35;6.90;;;6.15;;
8458;SDS011;4266;48.816;9.154;2023-08-12T09:22:03;6.70;;;6.03;;
8458;SDS011;4266;48.816;9.154;2023-08-12T09:24:29;8.25;;;5.62;;
8458;SDS011;4266;48.816;9.154;2023-08-12T09:26:54;6.30;;;5.28;;
8458;SDS011;4266;48.816;9.154;2023-08-12T09:29:22;5.45;;;5.05;;
8458;SDS011;4266;48.816;9.154;2023-08-12T09:31:47;5.70;;;5.20;;
8458;SDS011;4266;48.816;9.154;2023-08-12T09:34:14;8.32;;;5.30;;
8458;SDS011;4266;48.816;9.154;2023-08-12T09:36:40;6.35;;;5.10;;
8458;SDS011;4266;48.816;9.154;2023-08-12T09:39:07;7.15;;;5.65;;
8458;SDS011;4266;48.816;9.154;2023-08-12T09:41:32;7.10;;;4.87;;
8458;SDS011;4266;48.816;9.154;2023-08-12T09:43:58;5.32;;;4.78;;
8458;SDS011;4266;48.816;9.154;2023-08-12T09:46:23;6.30;;;4.53;;
8458;SDS011;4266;48.816;9.154;2023-08-12T09:48:50;5.87;;;4.43;;
8458;SDS011;4266;48.816;9.154;2023-08-12T09:51:15;4.95;;;4.28;;
8458;SDS011;4266;48.816;9.154;2023-08-12T09:53:41;5.90;;;5.07;;
8458;SDS011;4266;48.816;9.154;2023-08-12T09:56:07;5.22;;;4.55;;
8458;SDS011;4266;48.816;9.154;2023-08-12T09:58:33;5.03;;;4.62;;
8458;SDS011;4266;48.816;9.154;2023-08-12T10:00:59;7.95;;;4.75;;
8458;SDS011;4266;48.816;9.154;2023-08-12T10:03:25;4.45;;;3.40;;
8458;SDS011;4266;48.816;9.154;2023-08-12T10:05:50;6.85;;;5.00;;
8458;SDS011;4266;48.816;9.154;2023-08-12T10:08:16;6.87;;;4.00;;
8458;SDS011;4266;48.816;9.154;2023-08-12T10:10:42;4.22;;;3.83;;
8458;SDS011;4266;48.816;9.154;2023-08-12T10:13:08;5.97;;;3.75;;
8458;SDS011;4266;48.816;9.154;2023-08-12T10:15:34;7.45;;;4.22;;
8458;SDS011;4266;48.816;9.154;2023-08-12T10:17:59;4.32;;;3.92;;
8458;SDS011;4266;48.816;9.154;2023-08-12T10:20:25;4.10;;;3.67;;
8458;SDS011;4266;48.816;9.154;2023-08-12T10:22:51;4.18;;;3.83;;
8458;SDS011;4266;48.816;9.154;2023-08-12T10:25:17;4.55;;;4.15;;
8458;SDS011;4266;48.816;9.154;2023-08-12T10:27:42;3.92;;;3.62;;
8458;SDS011;4266;48.816;9.154;2023-08-12T10:30:07;4.32;;;3.85;;
8458;SDS011;4266;48.816;9.154;2023-08-12T10:32:34;5.60;;;3.95;;
8458;SDS011;4266;48.816;9.154;2023-08-12T10:35:00;4.32;;;3.87;;
8458;SDS011;4266;48.816;9.154;2023-08-12T10:37:26;6.10;;;3.72;;
8458;SDS011;4266;48.816;9.154;2023-08-12T10:40:02;4.15;;;3.75;;
8458;SDS011;4266;48.816;9.154;2023-08-12T10:45:10;6.47;;;3.33;;
8458;SDS011;4266;48.816;9.154;2023-08-12T10:47:38;3.30;;;3.10;;
8458;SDS011;4266;48.816;9.154;2023-08-12T10:50:04;4.35;;;3.22;;
8458;SDS011;4266;48.816;9.154;2023-08-12T10:52:31;3.50;;;3.20;;
8458;SDS011;4266;48.816;9.154;2023-08-12T10:57:34;3.95;;;3.65;;
8458;SDS011;4266;48.816;9.154;2023-08-12T10:59:59;4.37;;;4.00;;
8458;SDS011;4266;48.816;9.154;2023-08-12T11:02:29;5.55;;;3.95;;
8458;SDS011;4266;48.816;9.154;2023-08-12T11:04:55;5.25;;;3.60;;
8458;SDS011;4266;48.816;9.154;2023-08-12T11:07:22;4.07;;;3.67;;
8458;SDS011;4266;48.816;9.154;2023-08-12T11:09:52;6.37;;;4.12;;
8458;SDS011;4266;48.816;9.154;2023-08-12T11:12:16;4.40;;;3.60;;
8458;SDS011;4266;48.816;9.154;2023-08-12T11:17:13;6.75;;;3.62;;
8458;SDS011;4266;48.816;9.154;2023-08-12T11:19:39;4.22;;;3.83;;
8458;SDS011;4266;48.816;9.154;2023-08-12T11:22:04;3.85;;;3.53;;
8458;SDS011;4266;48.816;9.154;2023-08-12T11:24:30;4.22;;;3.33;;
8458;SDS011;4266;48.816;9.154;2023-08-12T11:26:56;4.22;;;3.65;;
8458;SDS011;4266;48.816;9.154;2023-08-12T11:29:22;3.87;;;3.58;;
8458;SDS011;4266;48.816;9.154;2023-08-12T11:31:48;5.35;;;3.60;;
8458;SDS011;4266;48.816;9.154;2023-08-12T11:34:14;4.50;;;3.55;;
8458;SDS011;4266;48.816;9.154;2023-08-12T11:36:39;4.30;;;3.90;;
8458;SDS011;4266;48.816;9.154;2023-08-12T11:39:06;4.03;;;3.35;;
8458;SDS011;4266;48.816;9.154;2023-08-12T11:41:33;5.50;;;3.65;;
8458;SDS011;4266;48.816;9.154;2023-08-12T11:43:57;6.50;;;3.90;;
8458;SDS011;4266;48.816;9.154;2023-08-12T11:46:23;4.90;;;3.60;;
8458;SDS011;4266;48.816;9.154;2023-08-12T11:48:48;4.32;;;3.92;;
8458;SDS011;4266;48.816;9.154;2023-08-12T11:51:14;5.07;;;3.53;;
8458;SDS011;4266;48.816;9.154;2023-08-12T11:53:40;4.70;;;3.65;;
8458;SDS011;4266;48.816;9.154;2023-08-12T11:56:05;6.82;;;4.03;;
8458;SDS011;4266;48.816;9.154;2023-08-12T11:58:36;5.93;;;4.78;;
8458;SDS011;4266;48.816;9.154;2023-08-12T12:01:01;6.35;;;4.80;;
8458;SDS011;4266;48.816;9.154;2023-08-12T12:03:27;4.85;;;4.45;;
8458;SDS011;4266;48.816;9.154;2023-08-12T12:05:55;9.52;;;4.10;;
8458;SDS011;4266;48.816;9.154;2023-08-12T12:08:19;3.55;;;3.25;;
8458;SDS011;4266;48.816;9.154;2023-08-12T12:10:44;5.03;;;3.58;;
8458;SDS011;4266;48.816;9.154;2023-08-12T12:13:10;4.80;;;3.70;;
8458;SDS011;4266;48.816;9.154;2023-08-12T12:15:38;6.15;;;3.65;;
8458;SDS011;4266;48.816;9.154;2023-08-12T12:18:03;3.55;;;3.00;;
8458;SDS011;4266;48.816;9.154;2023-08-12T12:20:29;5.65;;;3.47;;
8458;SDS011;4266;48.816;9.154;2023-08-12T12:22:55;3.47;;;3.17;;
8458;SDS011;4266;48.816;9.154;2023-08-12T12:25:21;4.00;;;3.60;;
8458;SDS011;4266;48.816;9.154;2023-08-12T12:27:47;5.28;;;3.87;;
8458;SDS011;4266;48.816;9.154;2023-08-12T12:30:12;12.63;;;5.60;;
8458;SDS011;4266;48.816;9.154;2023-08-12T12:32:39;8.57;;;5.75;;
8458;SDS011;4266;48.816;9.154;2023-08-12T12:35:05;5.35;;;4.85;;
8458;SDS011;4266;48.816;9.154;2023-08-12T12:37:35;9.45;;;4.90;;
8458;SDS011;4266;48.816;9.154;2023-08-12T12:40:00;4.87;;;4.50;;
8458;SDS011;4266;48.816;9.154;2023-08-12T12:42:27;5.15;;;4.12;;
8458;SDS011;4266;48.816;9.154;2023-08-12T12:44:52;4.65;;;4.18;;
8458;SDS011;4266;48.816;9.154;2023-08-12T12:47:19;4.80;;;3.85;;
8458;SDS011;4266;48.816;9.154;2023-08-12T12:49:45;8.27;;;4.37;;
8458;SDS011;4266;48.816;9.154;2023-08-12T12:52:10;9.15;;;4.95;;
8458;SDS011;4266;48.816;9.154;2023-08-12T12:54:36;7.82;;;5.12;;
8458;SDS011;4266;48.816;9.154;2023-08-12T12:57:02;8.43;;;6.03;;
8458;SDS011;4266;48.816;9.154;2023-08-12T12:59:27;7.72;;;4.82;;
8458;SDS011;4266;48.816;9.154;2023-08-12T13:01:54;9.80;;;5.62;;
8458;SDS011;4266;48.816;9.154;2023-08-12T13:04:20;8.05;;;5.90;;
8458;SDS011;4266;48.816;9.154;2023-08-12T13:06:46;8.38;;;6.30;;
8458;SDS011;4266;48.816;9.154;2023-08-12T13:09:12;6.00;;;5.07;;
8458;SDS011;4266;48.816;9.154;2023-08-12T13:11:38;5.35;;;4.85;;
8458;SDS011;4266;48.816;9.154;2023-08-12T13:14:04;6.93;;;5.60;;
8458;SDS011;4266;48.816;9.154;2023-08-12T13:16:29;7.05;;;5.55;;
8458;SDS011;4266;48.816;9.154;2023-08-12T13:18:56;8.50;;;5.87;;
8458;SDS011;4266;48.816;9.154;2023-08-12T13:21:25;6.57;;;4.95;;
8458;SDS011;4266;48.816;9.154;2023-08-12T13:23:51;5.57;;;4.97;;
8458;SDS011;4266;48.816;9.154;2023-08-12T13:26:17;6.72;;;6.10;;
8458;SDS011;4266;48.816;9.154;2023-08-12T13:28:43;6.05;;;5.45;;
8458;SDS011;4266;48.816;9.154;2023-08-12T13:31:08;6.50;;;5.78;;
8458;SDS011;4266;48.816;9.154;2023-08-12T13:33:34;9.65;;;5.97;;
8458;SDS011;4266;48.816;9.154;2023-08-12T13:36:01;6.20;;;5.60;;
8458;SDS011;4266;48.816;9.154;2023-08-12T13:38:26;6.05;;;5.25;;
8458;SDS011;4266;48.816;9.154;2023-08-12T13:40:52;6.60;;;6.00;;
8458;SDS011;4266;48.816;9.154;2023-08-12T13:43:18;9.70;;;6.05;;
8458;SDS011;4266;48.816;9.154;2023-08-12T13:45:44;8.10;;;6.20;;
8458;SDS011;4266;48.816;9.154;2023-08-12T13:48:10;8.18;;;6.30;;
8458;SDS011;4266;48.816;9.154;2023-08-12T13:50:36;7.20;;;5.78;;
8458;SDS011;4266;48.816;9.154;2023-08-12T13:53:01;7.37;;;6.20;;
8458;SDS011;4266;48.816;9.154;2023-08-12T13:55:27;5.82;;;5.20;;
8458;SDS011;4266;48.816;9.154;2023-08-12T13:57:53;7.65;;;5.55;;
8458;SDS011;4266;48.816;9.154;2023-08-12T14:00:18;5.82;;;5.40;;
8458;SDS011;4266;48.816;9.154;2023-08-12T14:02:44;6.75;;;6.18;;
8458;SDS011;4266;48.816;9.154;2023-08-12T14:05:10;6.22;;;5.62;;
8458;SDS011;4266;48.816;9.154;2023-08-12T14:07:35;6.10;;;5.47;;
8458;SDS011;4266;48.816;9.154;2023-08-12T14:10:01;6.03;;;5.50;;
8458;SDS011;4266;48.816;9.154;2023-08-12T14:12:27;7.25;;;6.25;;
8458;SDS011;4266;48.816;9.154;2023-08-12T14:14:53;12.23;;;6.80;;
8458;SDS011;4266;48.816;9.154;2023-08-12T14:17:19;7.55;;;6.50;;
8458;SDS011;4266;48.816;9.154;2023-08-12T14:19:48;10.70;;;6.20;;
8458;SDS011;4266;48.816;9.154;2023-08-12T14:22:10;6.62;;;5.95;;
8458;SDS011;4266;48.816;9.154;2023-08-12T14:24:36;5.80;;;5.30;;
8458;SDS011;4266;48.816;9.154;2023-08-12T14:27:01;6.43;;;5.82;;
8458;SDS011;4266;48.816;9.154;2023-08-12T14:29:28;6.47;;;5.87;;
8458;SDS011;4266;48.816;9.154;2023-08-12T14:31:53;6.80;;;6.22;;
8458;SDS011;4266;48.816;9.154;2023-08-12T14:34:22;6.95;;;6.10;;
8458;SDS011;4266;48.816;9.154;2023-08-12T14:36:47;6.12;;;5.53;;
8458;SDS011;4266;48.816;9.154;2023-08-12T14:39:13;6.78;;;6.07;;
8458;SDS011;4266;48.816;9.154;2023-08-12T14:41:40;7.28;;;5.78;;
8458;SDS011;4266;48.816;9.154;2023-08-12T14:44:05;6.50;;;5.90;;
8458;SDS011;4266;48.816;9.154;2023-08-12T14:46:31;6.18;;;5.57;;
8458;SDS011;4266;48.816;9.154;2023-08-12T14:48:57;7.78;;;6.12;;
8458;SDS011;4266;48.816;9.154;2023-08-12T14:51:24;6.75;;;4.93;;
8458;SDS011;4266;48.816;9.154;2023-08-12T14:53:49;9.02;;;4.97;;
8458;SDS011;4266;48.816;9.154;2023-08-12T14:56:15;5.90;;;4.37;;
8458;SDS011;4266;48.816;9.154;2023-08-12T14:58:41;5.57;;;4.62;;
8458;SDS011;4266;48.816;9.154;2023-08-12T15:01:07;5.03;;;4.40;;
8458;SDS011;4266;48.816;9.154;2023-08-12T15:03:32;5.93;;;4.65;;
8458;SDS011;4266;48.816;9.154;2023-08-12T15:05:59;7.25;;;4.95;;
8458;SDS011;4266;48.816;9.154;2023-08-12T15:08:24;5.40;;;4.90;;
8458;SDS011;4266;48.816;9.154;2023-08-12T15:10:50;6.72;;;4.93;;
8458;SDS011;4266;48.816;9.154;2023-08-12T15:13:16;4.90;;;4.50;;
8458;SDS011;4266;48.816;9.154;2023-08-12T15:15:44;5.82;;;4.85;;